createdAt,value
2023-10-11T00:00:32.099Z,8.60
2023-10-11T00:03:31.575Z,8.40
2023-10-11T00:06:07.728Z,8.10
2023-10-11T00:08:42.360Z,8.50
2023-10-11T00:11:17.277Z,8.80
2023-10-11T00:13:51.161Z,7.80
2023-10-11T00:16:24.284Z,7.90
2023-10-11T00:18:58.631Z,7.40
2023-10-11T00:21:54.930Z,6.80
2023-10-11T00:24:26.198Z,7.20
2023-10-11T00:27:04.867Z,7.00
2023-10-11T00:32:16.358Z,8.70
2023-10-11T00:34:48.641Z,8.20
2023-10-11T00:37:26.164Z,7.00
2023-10-11T00:39:59.905Z,6.20
2023-10-11T00:42:34.324Z,6.30
2023-10-11T00:45:09.845Z,6.90
2023-10-11T00:47:45.039Z,9.40
2023-10-11T00:50:17.953Z,8.60
2023-10-11T00:52:58.210Z,8.90
2023-10-11T00:55:31.489Z,9.10
2023-10-11T00:58:13.704Z,8.40
2023-10-11T01:00:45.516Z,8.10
2023-10-11T01:03:17.029Z,7.80
2023-10-11T01:05:51.622Z,7.70
2023-10-11T01:08:25.915Z,7.40
2023-10-11T01:11:04.050Z,7.80
2023-10-11T01:13:44.009Z,6.90
2023-10-11T01:16:17.011Z,6.60
2023-10-11T01:18:50.743Z,6.90
2023-10-11T01:21:23.093Z,5.60
2023-10-11T01:23:53.358Z,6.30
2023-10-11T01:26:25.836Z,6.30
2023-10-11T01:28:59.891Z,6.50
2023-10-11T01:31:35.323Z,6.10
2023-10-11T01:34:09.205Z,7.40
2023-10-11T01:36:42.943Z,7.20
2023-10-11T01:39:24.153Z,6.90
2023-10-11T01:42:01.283Z,7.10
2023-10-11T01:44:34.205Z,6.80
2023-10-11T01:47:07.408Z,7.50
2023-10-11T01:49:44.846Z,6.90
2023-10-11T01:52:16.022Z,8.10
2023-10-11T01:54:46.079Z,6.90
2023-10-11T01:57:16.171Z,11.50
2023-10-11T01:59:49.455Z,10.80
2023-10-11T02:02:28.848Z,11.70
2023-10-11T02:05:02.590Z,15.00
2023-10-11T02:07:35.858Z,12.70
2023-10-11T02:10:06.968Z,10.40
2023-10-11T02:12:37.750Z,11.30
2023-10-11T02:15:10.556Z,9.60
2023-10-11T02:17:41.978Z,8.10
2023-10-11T02:20:24.206Z,9.40
2023-10-11T02:22:57.687Z,8.60
2023-10-11T02:25:28.906Z,8.10
2023-10-11T02:28:00.642Z,8.70
2023-10-11T02:30:41.075Z,10.60
2023-10-11T02:33:14.258Z,12.90
2023-10-11T02:35:54.809Z,13.70
2023-10-11T02:38:28.128Z,14.70
2023-10-11T02:40:59.227Z,14.30
2023-10-11T02:43:30.529Z,13.80
2023-10-11T02:46:01.660Z,12.20
2023-10-11T02:48:32.612Z,11.70
2023-10-11T02:51:19.760Z,10.50
2023-10-11T02:53:54.993Z,12.70
2023-10-11T02:56:26.159Z,15.60
2023-10-11T02:58:56.726Z,15.60
2023-10-11T03:01:33.638Z,12.70
2023-10-11T03:04:05.021Z,12.80
2023-10-11T03:06:38.058Z,9.80
2023-10-11T03:09:14.315Z,11.20
2023-10-11T03:11:48.001Z,9.70
2023-10-11T03:14:22.861Z,9.70
2023-10-11T03:17:08.092Z,9.50
2023-10-11T03:19:44.772Z,8.70
2023-10-11T03:22:25.115Z,10.50
2023-10-11T03:24:56.131Z,8.10
2023-10-11T03:27:29.099Z,9.70
2023-10-11T03:30:01.876Z,9.60
2023-10-11T03:32:32.078Z,7.70
2023-10-11T03:35:01.971Z,7.90
2023-10-11T03:37:33.287Z,7.00
2023-10-11T03:40:13.491Z,6.90
2023-10-11T03:43:02.009Z,9.30
2023-10-11T03:45:36.360Z,7.70
2023-10-11T03:48:12.354Z,8.00
2023-10-11T03:50:49.430Z,10.40
2023-10-11T03:53:19.881Z,8.70
2023-10-11T03:58:33.038Z,8.10
2023-10-11T04:01:14.400Z,7.60
2023-10-11T04:03:45.513Z,10.00
2023-10-11T04:06:35.216Z,8.30
2023-10-11T04:09:06.307Z,11.10
2023-10-11T04:11:39.734Z,9.10
2023-10-11T04:14:19.695Z,9.50
2023-10-11T04:16:51.418Z,9.40
2023-10-11T04:19:23.428Z,9.30
2023-10-11T04:21:52.966Z,13.60
2023-10-11T04:24:22.248Z,11.80
2023-10-11T04:27:21.093Z,9.60
2023-10-11T04:29:53.724Z,10.40
2023-10-11T04:32:43.000Z,9.20
2023-10-11T04:35:32.800Z,13.50
2023-10-11T04:38:05.274Z,12.50
2023-10-11T04:40:34.999Z,10.10
2023-10-11T04:43:06.537Z,13.50
2023-10-11T04:48:35.266Z,9.60
2023-10-11T04:51:23.677Z,11.10
2023-10-11T04:53:53.645Z,12.00
2023-10-11T04:56:45.658Z,9.30
2023-10-11T04:59:29.990Z,10.00
2023-10-11T05:02:10.959Z,10.30
2023-10-11T05:04:47.046Z,8.00
2023-10-11T05:07:21.860Z,6.50
2023-10-11T05:10:10.414Z,6.80
2023-10-11T05:12:43.815Z,7.40
2023-10-11T05:15:16.039Z,6.60
2023-10-11T05:18:00.952Z,7.10
2023-10-11T05:20:43.942Z,7.90
2023-10-11T05:23:16.232Z,6.20
2023-10-11T05:26:00.669Z,6.70
2023-10-11T05:28:32.759Z,6.20
2023-10-11T05:31:15.022Z,6.60
2023-10-11T05:34:01.844Z,7.50
2023-10-11T05:36:51.015Z,7.00
2023-10-11T05:39:39.479Z,6.70
2023-10-11T05:42:28.570Z,11.00
2023-10-11T05:45:17.421Z,12.00
2023-10-11T05:48:06.494Z,13.60
2023-10-11T05:50:55.433Z,13.60
2023-10-11T05:53:26.459Z,14.40
2023-10-11T05:55:57.904Z,13.80
2023-10-11T05:58:27.552Z,14.90
2023-10-11T06:00:57.549Z,14.70
2023-10-11T06:03:30.907Z,14.90
2023-10-11T06:06:13.040Z,13.50
2023-10-11T06:08:46.877Z,12.90
2023-10-11T06:11:17.514Z,15.70
2023-10-11T06:13:49.991Z,14.00
2023-10-11T06:16:24.204Z,13.20
2023-10-11T06:19:18.723Z,14.00
2023-10-11T06:22:08.388Z,11.70
2023-10-11T06:24:41.947Z,12.60
2023-10-11T06:27:46.839Z,10.40
2023-10-11T06:30:19.079Z,12.40
2023-10-11T06:32:51.260Z,11.20
2023-10-11T06:35:26.651Z,11.10
2023-10-11T06:37:57.497Z,10.50
2023-10-11T06:40:48.992Z,9.50
2023-10-11T06:43:19.507Z,9.00
2023-10-11T06:48:24.205Z,8.40
2023-10-11T06:50:54.480Z,8.30
2023-10-11T06:53:24.485Z,8.00
2023-10-11T06:55:55.232Z,6.60
2023-10-11T06:58:24.436Z,5.70
2023-10-11T07:00:55.012Z,6.10
2023-10-11T07:03:27.165Z,6.10
2023-10-11T07:06:12.430Z,5.40
2023-10-11T07:08:51.177Z,5.40
2023-10-11T07:11:48.611Z,4.60
2023-10-11T07:14:19.662Z,5.00
2023-10-11T07:16:48.934Z,4.50
2023-10-11T07:19:18.456Z,5.00
2023-10-11T07:21:48.369Z,4.30
2023-10-11T07:24:33.764Z,4.50
2023-10-11T07:27:11.975Z,4.30
2023-10-11T07:29:51.138Z,3.80
2023-10-11T07:32:21.696Z,3.70
2023-10-11T07:34:56.740Z,3.60
2023-10-11T07:37:28.592Z,3.40
2023-10-11T07:40:02.118Z,4.00
2023-10-11T07:42:39.182Z,4.00
2023-10-11T07:45:14.825Z,3.90
2023-10-11T07:47:47.659Z,3.80
2023-10-11T07:50:24.416Z,3.50
2023-10-11T07:52:56.911Z,3.60
2023-10-11T07:55:27.794Z,3.50
2023-10-11T07:58:03.689Z,3.70
2023-10-11T08:00:33.769Z,3.80
2023-10-11T08:03:07.008Z,3.30
2023-10-11T08:05:47.490Z,3.70
2023-10-11T08:08:18.861Z,3.50
2023-10-11T08:10:54.113Z,3.30
2023-10-11T08:13:27.519Z,3.30
2023-10-11T08:16:01.448Z,3.20
2023-10-11T08:18:31.298Z,3.40
2023-10-11T08:23:31.349Z,2.90
2023-10-11T08:26:07.564Z,3.20
2023-10-11T08:28:37.216Z,2.80
2023-10-11T08:31:12.020Z,3.10
2023-10-11T08:33:41.842Z,3.10
2023-10-11T08:36:15.504Z,2.90
2023-10-11T08:38:46.340Z,3.80
2023-10-11T08:43:50.853Z,3.70
2023-10-11T08:46:21.218Z,4.40
2023-10-11T08:48:52.027Z,4.60
2023-10-11T08:51:25.088Z,3.80
2023-10-11T08:54:02.439Z,5.30
2023-10-11T08:56:36.048Z,5.20
2023-10-11T08:59:05.785Z,4.00
2023-10-11T09:01:39.722Z,4.40
2023-10-11T09:04:13.340Z,3.50
2023-10-11T09:06:46.884Z,3.50
2023-10-11T09:09:41.872Z,6.20
2023-10-11T09:12:26.780Z,5.60
2023-10-11T09:15:00.761Z,5.00
2023-10-11T09:17:33.450Z,6.10
2023-10-11T09:20:05.270Z,5.40
2023-10-11T09:22:49.440Z,5.90
2023-10-11T09:25:35.559Z,4.90
2023-10-11T09:28:06.087Z,5.60
2023-10-11T09:30:46.227Z,6.20
2023-10-11T09:33:20.403Z,5.90
2023-10-11T09:35:52.421Z,5.10
2023-10-11T09:38:23.256Z,4.70
2023-10-11T09:40:55.210Z,5.40
2023-10-11T09:43:26.456Z,4.90
2023-10-11T09:45:56.179Z,4.90
2023-10-11T09:48:25.890Z,5.40
2023-10-11T09:50:59.455Z,4.80
2023-10-11T09:53:29.343Z,4.50
2023-10-11T09:56:17.641Z,4.20
2023-10-11T09:59:11.107Z,4.70
2023-10-11T10:02:04.730Z,5.00
2023-10-11T10:04:53.486Z,5.50
2023-10-11T10:07:42.195Z,6.00
2023-10-11T10:10:17.267Z,5.00
2023-10-11T10:13:11.405Z,4.30
2023-10-11T10:15:54.691Z,4.60
2023-10-11T10:18:29.175Z,4.30
2023-10-11T10:21:09.030Z,4.40
2023-10-11T10:23:44.233Z,3.80
2023-10-11T10:26:14.186Z,5.00
2023-10-11T10:28:47.186Z,4.50
2023-10-11T10:31:23.447Z,4.10
2023-10-11T10:34:15.755Z,4.50
2023-10-11T10:36:45.863Z,4.60
2023-10-11T10:39:35.177Z,4.60
2023-10-11T10:42:17.041Z,5.00
2023-10-11T10:44:52.680Z,5.20
2023-10-11T10:47:27.992Z,4.80
2023-10-11T10:49:58.552Z,3.90
2023-10-11T10:52:31.545Z,4.90
2023-10-11T10:55:05.019Z,4.10
2023-10-11T10:57:39.141Z,5.10
2023-10-11T11:00:23.000Z,3.60
2023-10-11T11:02:55.414Z,4.20
2023-10-11T11:05:32.649Z,3.50
2023-10-11T11:08:17.751Z,4.40
2023-10-11T11:10:57.032Z,3.30
2023-10-11T11:13:31.078Z,3.30
2023-10-11T11:16:01.581Z,3.40
2023-10-11T11:18:34.516Z,2.80
2023-10-11T11:21:27.165Z,2.90
2023-10-11T11:23:57.692Z,3.60
2023-10-11T11:26:33.551Z,2.90
2023-10-11T11:29:18.787Z,3.80
2023-10-11T11:31:55.697Z,6.20
2023-10-11T11:34:39.537Z,3.20
2023-10-11T11:39:53.871Z,2.60
2023-10-11T11:42:26.549Z,2.30
2023-10-11T11:44:57.399Z,2.50
2023-10-11T11:47:27.815Z,2.40
2023-10-11T11:50:02.028Z,2.10
2023-10-11T11:52:31.227Z,2.00
2023-10-11T11:55:00.623Z,1.90
2023-10-11T11:57:31.877Z,1.80
2023-10-11T12:00:21.602Z,1.80
2023-10-11T12:02:55.875Z,1.80
2023-10-11T12:05:25.481Z,1.90
2023-10-11T12:08:00.007Z,2.50
2023-10-11T12:10:30.015Z,2.20
2023-10-11T12:13:07.435Z,2.00
2023-10-11T12:15:38.026Z,2.10
2023-10-11T12:18:12.043Z,1.60
2023-10-11T12:20:41.750Z,1.80
2023-10-11T12:23:11.821Z,1.50
2023-10-11T12:25:41.992Z,1.50
2023-10-11T12:28:13.426Z,1.40
2023-10-11T12:30:46.772Z,1.60
2023-10-11T12:33:16.786Z,1.70
2023-10-11T12:35:46.466Z,1.70
2023-10-11T12:38:16.180Z,2.20
2023-10-11T12:40:46.453Z,1.40
2023-10-11T12:43:17.221Z,2.30
2023-10-11T12:45:47.331Z,2.40
2023-10-11T12:48:17.775Z,2.20
2023-10-11T12:50:47.280Z,1.90
2023-10-11T12:53:17.299Z,2.00
2023-10-11T12:55:50.662Z,1.80
2023-10-11T12:58:20.995Z,1.60
2023-10-11T13:00:53.330Z,1.70
2023-10-11T13:03:23.413Z,1.60
2023-10-11T13:05:54.527Z,2.00
2023-10-11T13:08:29.941Z,1.90
2023-10-11T13:10:59.502Z,1.90
2023-10-11T13:13:32.798Z,1.80
2023-10-11T13:16:02.591Z,1.80
2023-10-11T13:18:34.786Z,2.20
2023-10-11T13:21:06.775Z,2.20
2023-10-11T13:23:36.664Z,1.90
2023-10-11T13:26:09.464Z,2.00
2023-10-11T13:28:41.416Z,1.80
2023-10-11T13:31:11.840Z,2.30
2023-10-11T13:33:42.286Z,2.30
2023-10-11T13:36:14.023Z,2.60
2023-10-11T13:38:47.098Z,1.90
2023-10-11T13:41:17.907Z,2.70
2023-10-11T13:43:47.332Z,2.00
2023-10-11T13:46:18.949Z,2.20
2023-10-11T13:48:52.055Z,2.00
2023-10-11T13:51:23.420Z,1.80
2023-10-11T13:53:53.625Z,2.20
2023-10-11T13:56:23.224Z,1.90
2023-10-11T13:58:54.458Z,2.20
2023-10-11T14:01:50.316Z,2.30
2023-10-11T14:04:39.866Z,2.10
2023-10-11T14:07:21.989Z,1.60
2023-10-11T14:09:56.504Z,2.70
2023-10-11T14:12:30.736Z,3.20
2023-10-11T14:15:00.501Z,2.00
2023-10-11T14:17:33.165Z,2.50
2023-10-11T14:20:07.440Z,1.70
2023-10-11T14:22:37.039Z,3.10
2023-10-11T14:25:09.246Z,2.50
2023-10-11T14:27:41.540Z,2.20
2023-10-11T14:30:17.244Z,2.40
2023-10-11T14:32:48.187Z,2.60
2023-10-11T14:35:18.663Z,3.10
2023-10-11T14:37:47.910Z,2.40
2023-10-11T14:45:19.528Z,2.80
2023-10-11T14:47:49.528Z,2.50
2023-10-11T14:50:28.824Z,2.70
2023-10-11T14:53:01.576Z,2.70
2023-10-11T14:55:34.156Z,2.90
2023-10-11T14:58:03.496Z,3.40
2023-10-11T15:00:35.653Z,2.70
2023-10-11T15:03:06.317Z,3.40
2023-10-11T15:05:38.450Z,3.20
2023-10-11T15:08:07.857Z,3.20
2023-10-11T15:10:37.591Z,3.90
2023-10-11T15:13:08.334Z,3.90
2023-10-11T15:15:37.713Z,3.70
2023-10-11T15:18:07.296Z,3.80
2023-10-11T15:23:06.511Z,3.70
2023-10-11T15:25:35.523Z,4.10
2023-10-11T15:28:07.459Z,4.60
2023-10-11T15:30:42.961Z,4.40
2023-10-11T15:33:14.465Z,4.10
2023-10-11T15:35:49.010Z,3.90
2023-10-11T15:38:18.339Z,4.10
2023-10-11T15:41:01.292Z,4.30
2023-10-11T15:43:36.154Z,4.40
2023-10-11T15:46:06.990Z,4.00
2023-10-11T15:48:36.513Z,4.80
2023-10-11T15:51:17.265Z,4.70
2023-10-11T15:53:49.663Z,3.80
2023-10-11T15:56:18.929Z,5.40
2023-10-11T15:58:48.397Z,4.80
2023-10-11T16:01:18.002Z,4.90
2023-10-11T16:03:54.475Z,8.60
2023-10-11T16:06:26.635Z,11.00
2023-10-11T16:08:55.883Z,12.10
2023-10-11T16:11:25.167Z,11.20
2023-10-11T16:13:54.161Z,11.60
2023-10-11T16:16:23.320Z,12.20
2023-10-11T16:18:53.631Z,13.90
2023-10-11T16:21:23.259Z,12.20
2023-10-11T16:23:53.418Z,15.10
2023-10-11T16:26:22.913Z,13.50
2023-10-11T16:28:52.121Z,11.30
2023-10-11T16:31:21.313Z,8.80
2023-10-11T16:33:54.296Z,9.10
2023-10-11T16:36:23.421Z,8.30
2023-10-11T16:38:55.588Z,7.80
2023-10-11T16:41:25.006Z,6.90
2023-10-11T16:43:53.642Z,8.30
2023-10-11T16:48:55.110Z,6.70
2023-10-11T16:51:23.904Z,6.30
2023-10-11T16:53:54.455Z,5.70
2023-10-11T16:56:25.056Z,4.90
2023-10-11T16:58:54.158Z,5.00
2023-10-11T17:01:23.403Z,6.00
2023-10-11T17:03:54.092Z,6.50
2023-10-11T17:06:22.929Z,6.70
2023-10-11T17:08:51.772Z,6.60
2023-10-11T17:11:21.172Z,7.10
2023-10-11T17:13:49.955Z,7.90
2023-10-11T17:16:19.002Z,6.60
2023-10-11T17:18:48.940Z,6.80
2023-10-11T17:21:18.087Z,8.20
2023-10-11T17:23:46.956Z,8.40
2023-10-11T17:26:16.976Z,8.50
2023-10-11T17:28:46.886Z,8.90
2023-10-11T17:31:15.867Z,11.50
2023-10-11T17:33:45.509Z,10.60
2023-10-11T17:36:14.669Z,10.80
2023-10-11T17:38:43.681Z,12.00
2023-10-11T17:41:14.925Z,12.50
2023-10-11T17:43:44.522Z,10.60
2023-10-11T17:46:13.558Z,10.00
2023-10-11T17:48:42.489Z,10.30
2023-10-11T17:51:22.271Z,12.00
2023-10-11T17:53:51.769Z,10.00
2023-10-11T17:56:20.753Z,12.80
2023-10-11T17:58:50.259Z,10.80
2023-10-11T18:01:19.849Z,10.30
2023-10-11T18:03:49.867Z,11.70
2023-10-11T18:06:19.497Z,11.80
2023-10-11T18:08:48.892Z,12.40
2023-10-11T18:11:18.701Z,15.50
2023-10-11T18:13:48.967Z,17.00
2023-10-11T18:16:19.653Z,20.80
2023-10-11T18:18:50.209Z,20.20
2023-10-11T18:21:19.137Z,21.30
2023-10-11T18:23:48.166Z,18.50
2023-10-11T18:26:16.955Z,18.70
2023-10-11T18:28:48.327Z,18.10
2023-10-11T18:31:17.780Z,16.20
2023-10-11T18:33:46.602Z,16.50
2023-10-11T18:36:15.815Z,19.30
2023-10-11T18:38:45.825Z,20.90
2023-10-11T18:41:14.807Z,19.00
2023-10-11T18:43:44.986Z,18.40
2023-10-11T18:46:15.248Z,18.20
2023-10-11T18:48:44.188Z,16.00
2023-10-11T18:51:17.577Z,14.70
2023-10-11T18:53:47.548Z,12.90
2023-10-11T18:56:16.140Z,11.70
2023-10-11T18:58:45.779Z,11.60
2023-10-11T19:01:18.667Z,11.40
2023-10-11T19:03:54.124Z,9.60
2023-10-11T19:06:25.744Z,11.20
2023-10-11T19:08:57.180Z,11.00
2023-10-11T19:11:30.721Z,12.10
2023-10-11T19:14:01.957Z,10.60
2023-10-11T19:16:31.411Z,11.30
2023-10-11T19:19:01.171Z,13.50
2023-10-11T19:21:30.884Z,12.40
2023-10-11T19:24:01.824Z,13.70
2023-10-11T19:26:31.407Z,15.30
2023-10-11T19:29:00.701Z,14.60
2023-10-11T19:31:30.220Z,16.70
2023-10-11T19:33:59.797Z,15.40
2023-10-11T19:36:28.959Z,14.90
2023-10-11T19:38:58.726Z,14.50
2023-10-11T19:41:28.117Z,13.60
2023-10-11T19:43:57.307Z,13.20
2023-10-11T19:46:28.104Z,13.20
2023-10-11T19:48:56.953Z,11.80
2023-10-11T19:51:26.364Z,11.70
2023-10-11T19:53:55.549Z,12.00
2023-10-11T19:56:26.503Z,11.50
2023-10-11T19:58:55.360Z,11.50
2023-10-11T20:01:25.128Z,11.70
2023-10-11T20:03:55.032Z,9.80
2023-10-11T20:08:55.158Z,10.30
2023-10-11T20:11:25.253Z,10.00
2023-10-11T20:13:54.466Z,9.90
2023-10-11T20:16:23.894Z,11.50
2023-10-11T20:18:53.164Z,9.90
2023-10-11T20:21:24.219Z,9.70
2023-10-11T20:23:57.388Z,8.50
2023-10-11T20:26:27.203Z,7.60
2023-10-11T20:31:29.312Z,6.40
2023-10-11T20:33:59.445Z,6.90
2023-10-11T20:36:31.219Z,7.40
2023-10-11T20:39:00.266Z,7.90
2023-10-11T20:41:31.631Z,8.80
2023-10-11T20:44:01.614Z,7.80
2023-10-11T20:46:36.131Z,7.40
2023-10-11T20:49:06.178Z,8.80
2023-10-11T20:51:38.199Z,7.70
2023-10-11T20:54:12.985Z,6.80
2023-10-11T20:56:47.794Z,7.00
2023-10-11T20:59:19.999Z,8.00
2023-10-11T21:01:49.976Z,6.20
2023-10-11T21:04:20.282Z,7.10
2023-10-11T21:06:50.037Z,6.40
2023-10-11T21:09:23.149Z,7.40
2023-10-11T21:11:53.697Z,7.20
2023-10-11T21:16:52.660Z,7.40
2023-10-11T21:19:22.413Z,6.70
2023-10-11T21:21:52.327Z,7.50
2023-10-11T21:24:23.317Z,8.10
2023-10-11T21:26:52.694Z,8.30
2023-10-11T21:31:56.946Z,6.60
2023-10-11T21:34:27.259Z,6.90
2023-10-11T21:36:57.761Z,7.80
2023-10-11T21:39:27.943Z,8.60
2023-10-11T21:41:58.143Z,9.00
2023-10-11T21:44:29.086Z,9.20
2023-10-11T21:46:59.838Z,9.60
2023-10-11T21:49:30.927Z,7.60
2023-10-11T21:52:01.272Z,7.00
2023-10-11T21:54:31.579Z,6.10
2023-10-11T21:57:02.423Z,5.80
2023-10-11T21:59:32.225Z,6.00
2023-10-11T22:02:03.802Z,7.50
2023-10-11T22:04:35.256Z,6.90
2023-10-11T22:07:05.266Z,6.80
2023-10-11T22:09:35.068Z,7.30
2023-10-11T22:12:06.218Z,6.60
2023-10-11T22:14:39.034Z,7.80
2023-10-11T22:17:09.088Z,8.80
2023-10-11T22:19:40.097Z,7.30
2023-10-11T22:22:12.429Z,7.80
2023-10-11T22:24:45.686Z,7.70
2023-10-11T22:27:17.495Z,9.10
2023-10-11T22:29:52.609Z,8.70
2023-10-11T22:32:25.190Z,8.60
2023-10-11T22:34:56.708Z,8.60
2023-10-11T22:37:31.527Z,8.30
2023-10-11T22:40:04.322Z,9.50
2023-10-11T22:42:34.246Z,7.40
2023-10-11T22:45:06.835Z,7.90
2023-10-11T22:47:37.001Z,9.10
2023-10-11T22:52:41.089Z,7.00
2023-10-11T22:55:11.230Z,7.10
2023-10-11T22:57:45.098Z,7.10
2023-10-11T23:00:21.949Z,7.20
2023-10-11T23:02:55.133Z,8.00
2023-10-11T23:05:26.065Z,8.30
2023-10-11T23:07:57.581Z,7.70
2023-10-11T23:10:28.590Z,6.90
2023-10-11T23:12:59.052Z,7.50
2023-10-11T23:15:35.769Z,6.10
2023-10-11T23:18:16.017Z,7.10
2023-10-11T23:20:59.605Z,7.20
2023-10-11T23:23:37.109Z,6.70
2023-10-11T23:26:10.529Z,6.40
2023-10-11T23:28:42.633Z,6.40
2023-10-11T23:31:18.520Z,6.00
2023-10-11T23:33:52.626Z,7.90
2023-10-11T23:36:25.891Z,7.50
2023-10-11T23:39:09.211Z,6.60
2023-10-11T23:41:43.343Z,6.40
2023-10-11T23:44:22.586Z,7.30
2023-10-11T23:47:00.881Z,6.90
2023-10-11T23:52:08.420Z,7.30
2023-10-11T23:54:43.775Z,8.00
2023-10-11T23:57:25.314Z,6.90
